createdAt,value
2023-05-20T00:00:38.712Z,63.39
2023-05-20T00:01:38.714Z,63.29
2023-05-20T00:02:38.774Z,63.39
2023-05-20T00:03:38.920Z,63.59
2023-05-20T00:04:38.709Z,63.59
2023-05-20T00:05:38.728Z,63.18
2023-05-20T00:06:38.639Z,63.29
2023-05-20T00:07:38.623Z,63.29
2023-05-20T00:08:38.619Z,63.49
2023-05-20T00:09:39.340Z,63.49
2023-05-20T00:10:38.607Z,63.39
2023-05-20T00:11:38.703Z,63.32
2023-05-20T00:12:38.576Z,63.72
2023-05-20T00:13:38.565Z,63.59
2023-05-20T00:14:38.554Z,63.72
2023-05-20T00:15:38.577Z,64.23
2023-05-20T00:16:38.571Z,64.03
2023-05-20T00:17:38.552Z,64.33
2023-05-20T00:18:38.606Z,63.92
2023-05-20T00:19:38.495Z,64.03
2023-05-20T00:20:38.492Z,63.85
2023-05-20T00:21:38.461Z,64.64
2023-05-20T00:22:38.457Z,64.43
2023-05-20T00:23:38.457Z,64.53
2023-05-20T00:24:38.428Z,63.95
2023-05-20T00:25:38.448Z,64.33
2023-05-20T00:26:38.450Z,64.67
2023-05-20T00:27:38.441Z,64.97
2023-05-20T00:28:38.384Z,64.43
2023-05-20T00:29:38.387Z,64.33
2023-05-20T00:30:38.376Z,64.67
2023-05-20T00:31:38.400Z,64.53
2023-05-20T00:32:38.439Z,64.56
2023-05-20T00:33:38.335Z,64.87
2023-05-20T00:34:38.327Z,64.56
2023-05-20T00:35:38.325Z,64.76
2023-05-20T00:36:38.303Z,64.76
2023-05-20T00:37:38.294Z,64.15
2023-05-20T00:38:38.284Z,64.26
2023-05-20T00:39:38.272Z,64.46
2023-05-20T00:40:38.279Z,64.97
2023-05-20T00:41:38.249Z,64.76
2023-05-20T00:42:38.254Z,64.36
2023-05-20T00:43:38.233Z,64.36
2023-05-20T00:44:38.216Z,64.46
2023-05-20T00:45:38.222Z,64.56
2023-05-20T00:46:38.312Z,65.00
2023-05-20T00:47:38.213Z,64.46
2023-05-20T00:48:38.173Z,64.90
2023-05-20T00:49:38.148Z,64.97
2023-05-20T00:50:38.144Z,65.17
2023-05-20T00:51:38.134Z,65.17
2023-05-20T00:52:38.133Z,65.17
2023-05-20T00:53:38.120Z,64.97
2023-05-20T00:54:38.105Z,65.41
2023-05-20T00:55:38.099Z,65.51
2023-05-20T00:56:38.101Z,65.30
2023-05-20T00:57:38.076Z,65.20
2023-05-20T00:58:38.048Z,65.30
2023-05-20T00:59:38.066Z,65.51
2023-05-20T01:00:38.025Z,65.41
2023-05-20T01:01:38.128Z,65.71
2023-05-20T01:02:38.191Z,65.61
2023-05-20T01:03:38.132Z,65.51
2023-05-20T01:04:37.990Z,65.61
2023-05-20T01:05:40.590Z,65.51
2023-05-20T01:06:37.970Z,65.41
2023-05-20T01:07:37.938Z,66.35
2023-05-20T01:08:37.949Z,66.42
2023-05-20T01:09:37.918Z,65.74
2023-05-20T01:10:37.909Z,66.25
2023-05-20T01:11:37.946Z,65.74
2023-05-20T01:12:37.891Z,66.15
2023-05-20T01:13:37.888Z,66.32
2023-05-20T01:14:37.882Z,66.25
2023-05-20T01:15:38.059Z,66.05
2023-05-20T01:16:37.975Z,65.94
2023-05-20T01:17:38.051Z,66.55
2023-05-20T01:18:37.816Z,66.18
2023-05-20T01:19:37.803Z,66.79
2023-05-20T01:20:37.839Z,66.55
2023-05-20T01:21:37.790Z,66.35
2023-05-20T01:22:37.789Z,66.86
2023-05-20T01:23:37.771Z,66.15
2023-05-20T01:24:37.750Z,66.89
2023-05-20T01:25:37.749Z,66.69
2023-05-20T01:26:37.767Z,66.38
2023-05-20T01:27:37.713Z,65.88
2023-05-20T01:28:37.724Z,66.76
2023-05-20T01:29:37.715Z,66.79
2023-05-20T01:30:37.693Z,66.69
2023-05-20T01:31:37.735Z,66.38
2023-05-20T01:32:37.770Z,66.69
2023-05-20T01:33:37.650Z,66.69
2023-05-20T01:34:37.638Z,66.79
2023-05-20T01:35:37.624Z,66.28
2023-05-20T01:36:37.629Z,66.58
2023-05-20T01:37:37.621Z,66.49
2023-05-20T01:38:37.609Z,66.69
2023-05-20T01:39:37.578Z,66.89
2023-05-20T01:40:37.589Z,66.08
2023-05-20T01:41:37.561Z,66.79
2023-05-20T01:42:37.586Z,66.79
2023-05-20T01:43:37.542Z,66.08
2023-05-20T01:44:37.535Z,66.18
2023-05-20T01:45:37.524Z,67.10
2023-05-20T01:46:37.556Z,66.89
2023-05-20T01:47:37.586Z,66.08
2023-05-20T01:48:37.499Z,66.69
2023-05-20T01:49:37.479Z,66.28
2023-05-20T01:50:37.480Z,66.79
2023-05-20T01:51:37.442Z,65.57
2023-05-20T01:52:37.458Z,66.79
2023-05-20T01:53:37.439Z,66.79
2023-05-20T01:54:37.427Z,66.18
2023-05-20T01:55:37.412Z,66.49
2023-05-20T01:56:37.408Z,66.99
2023-05-20T01:57:37.409Z,65.47
2023-05-20T01:58:37.383Z,66.18
2023-05-20T01:59:37.353Z,66.08
2023-05-20T02:00:37.388Z,66.28
2023-05-20T02:01:37.415Z,66.38
2023-05-20T02:02:37.511Z,66.89
2023-05-20T02:03:37.353Z,66.49
2023-05-20T02:04:37.328Z,66.82
2023-05-20T02:05:37.693Z,66.58
2023-05-20T02:06:37.299Z,66.79
2023-05-20T02:07:37.295Z,66.38
2023-05-20T02:08:37.271Z,66.31
2023-05-20T02:09:37.242Z,67.33
2023-05-20T02:10:37.254Z,66.82
2023-05-20T02:11:37.236Z,66.31
2023-05-20T02:12:37.223Z,66.92
2023-05-20T02:13:37.239Z,67.02
2023-05-20T02:14:37.200Z,66.92
2023-05-20T02:15:37.265Z,66.92
2023-05-20T02:16:37.283Z,67.30
2023-05-20T02:17:37.259Z,67.33
2023-05-20T02:18:37.162Z,67.22
2023-05-20T02:19:37.184Z,67.33
2023-05-20T02:20:37.185Z,67.74
2023-05-20T02:21:37.139Z,67.22
2023-05-20T02:22:37.131Z,67.33
2023-05-20T02:23:37.093Z,67.63
2023-05-20T02:24:37.077Z,67.77
2023-05-20T02:25:37.069Z,67.43
2023-05-20T02:26:37.055Z,67.83
2023-05-20T02:27:37.058Z,67.63
2023-05-20T02:28:37.047Z,67.57
2023-05-20T02:29:37.016Z,67.53
2023-05-20T02:30:37.031Z,67.94
2023-05-20T02:31:36.997Z,67.94
2023-05-20T02:32:37.054Z,67.63
2023-05-20T02:33:36.994Z,67.87
2023-05-20T02:34:36.970Z,67.77
2023-05-20T02:35:37.047Z,67.77
2023-05-20T02:36:36.961Z,68.07
2023-05-20T02:37:36.954Z,67.87
2023-05-20T02:38:36.934Z,68.27
2023-05-20T02:39:36.920Z,68.99
2023-05-20T02:40:36.918Z,68.58
2023-05-20T02:41:36.899Z,68.68
2023-05-20T02:42:36.892Z,68.68
2023-05-20T02:43:36.887Z,68.48
2023-05-20T02:44:36.874Z,68.58
2023-05-20T02:45:36.899Z,68.88
2023-05-20T02:46:36.893Z,68.68
2023-05-20T02:47:36.876Z,68.68
2023-05-20T02:48:36.818Z,68.68
2023-05-20T02:49:36.813Z,68.68
2023-05-20T02:50:36.806Z,68.62
2023-05-20T02:51:36.795Z,68.71
2023-05-20T02:52:36.793Z,68.92
2023-05-20T02:53:36.757Z,69.19
2023-05-20T02:54:36.760Z,69.12
2023-05-20T02:55:36.839Z,68.92
2023-05-20T02:56:36.715Z,69.19
2023-05-20T02:57:36.732Z,68.92
2023-05-20T02:58:36.694Z,68.92
2023-05-20T02:59:36.696Z,68.92
2023-05-20T03:00:36.669Z,69.12
2023-05-20T03:01:36.715Z,69.02
2023-05-20T03:02:36.677Z,68.79
2023-05-20T03:03:36.641Z,69.19
2023-05-20T03:04:36.666Z,69.09
2023-05-20T03:05:36.624Z,69.73
2023-05-20T03:06:36.621Z,69.32
2023-05-20T03:07:36.700Z,69.43
2023-05-20T03:08:36.583Z,69.93
2023-05-20T03:09:36.587Z,69.63
2023-05-20T03:10:36.558Z,69.93
2023-05-20T03:11:36.566Z,69.32
2023-05-20T03:12:36.570Z,69.43
2023-05-20T03:13:36.531Z,70.04
2023-05-20T03:14:36.529Z,70.14
2023-05-20T03:15:36.842Z,70.04
2023-05-20T03:16:36.532Z,69.23
2023-05-20T03:17:36.554Z,70.04
2023-05-20T03:18:36.481Z,70.04
2023-05-20T03:19:36.473Z,70.24
2023-05-20T03:20:36.447Z,70.14
2023-05-20T03:21:36.450Z,69.43
2023-05-20T03:22:36.471Z,69.93
2023-05-20T03:23:36.437Z,70.04
2023-05-20T03:24:36.411Z,69.84
2023-05-20T03:25:36.513Z,70.14
2023-05-20T03:26:36.376Z,70.24
2023-05-20T03:27:36.405Z,70.58
2023-05-20T03:28:36.380Z,70.28
2023-05-20T03:29:36.363Z,69.87
2023-05-20T03:30:36.334Z,70.28
2023-05-20T03:31:36.364Z,70.28
2023-05-20T03:32:36.388Z,70.58
2023-05-20T03:33:36.302Z,70.28
2023-05-20T03:34:36.285Z,70.17
2023-05-20T03:35:36.666Z,70.38
2023-05-20T03:36:36.262Z,70.17
2023-05-20T03:37:36.274Z,70.28
2023-05-20T03:38:36.254Z,70.68
2023-05-20T03:39:36.307Z,70.78
2023-05-20T03:40:36.232Z,70.78
2023-05-20T03:41:36.220Z,71.09
2023-05-20T03:42:36.258Z,70.78
2023-05-20T03:43:36.210Z,70.48
2023-05-20T03:44:36.194Z,70.78
2023-05-20T03:45:36.486Z,70.99
2023-05-20T03:46:36.215Z,70.89
2023-05-20T03:47:36.214Z,70.99
2023-05-20T03:48:36.145Z,71.94
2023-05-20T03:49:36.141Z,72.01
2023-05-20T03:50:36.104Z,71.70
2023-05-20T03:51:36.098Z,71.63
2023-05-20T03:52:36.085Z,72.01
2023-05-20T03:53:36.077Z,71.91
2023-05-20T03:54:36.078Z,72.14
2023-05-20T03:55:36.291Z,72.04
2023-05-20T03:56:36.051Z,72.04
2023-05-20T03:57:36.034Z,71.91
2023-05-20T03:58:36.032Z,72.11
2023-05-20T03:59:36.028Z,72.21
2023-05-20T04:00:35.994Z,72.24
2023-05-20T04:01:35.998Z,71.60
2023-05-20T04:02:36.022Z,72.04
2023-05-20T04:03:36.148Z,72.34
2023-05-20T04:04:35.951Z,72.55
2023-05-20T04:05:36.177Z,72.34
2023-05-20T04:06:35.953Z,72.62
2023-05-20T04:07:35.954Z,72.82
2023-05-20T04:08:35.917Z,72.96
2023-05-20T04:09:35.901Z,72.86
2023-05-20T04:10:35.881Z,72.96
2023-05-20T04:11:35.910Z,72.65
2023-05-20T04:12:35.862Z,72.96
2023-05-20T04:13:35.881Z,72.82
2023-05-20T04:14:35.869Z,72.62
2023-05-20T04:15:36.026Z,73.06
2023-05-20T04:16:35.858Z,72.62
2023-05-20T04:17:35.829Z,73.26
2023-05-20T04:18:35.805Z,73.23
2023-05-20T04:19:35.784Z,72.72
2023-05-20T04:20:35.806Z,72.62
2023-05-20T04:21:35.776Z,72.41
2023-05-20T04:22:35.778Z,72.82
2023-05-20T04:23:35.742Z,72.82
2023-05-20T04:24:35.727Z,72.52
2023-05-20T04:25:35.748Z,72.48
2023-05-20T04:26:35.721Z,72.58
2023-05-20T04:27:35.719Z,72.48
2023-05-20T04:28:35.707Z,72.78
2023-05-20T04:29:35.676Z,72.69
2023-05-20T04:30:35.679Z,72.38
2023-05-20T04:31:35.689Z,72.38
2023-05-20T04:32:35.683Z,72.89
2023-05-20T04:33:35.674Z,72.69
2023-05-20T04:34:35.625Z,72.58
2023-05-20T04:35:35.918Z,72.65
2023-05-20T04:36:35.589Z,72.75
2023-05-20T04:37:35.598Z,72.75
2023-05-20T04:38:35.598Z,72.34
2023-05-20T04:39:35.573Z,71.94
2023-05-20T04:40:35.561Z,72.72
2023-05-20T04:41:35.550Z,72.62
2023-05-20T04:42:35.529Z,72.65
2023-05-20T04:43:35.580Z,72.45
2023-05-20T04:44:35.501Z,72.55
2023-05-20T04:45:35.620Z,72.45
2023-05-20T04:46:35.539Z,72.82
2023-05-20T04:47:35.496Z,72.62
2023-05-20T04:48:35.488Z,72.52
2023-05-20T04:49:35.493Z,72.72
2023-05-20T04:50:35.439Z,72.62
2023-05-20T04:51:35.481Z,72.72
2023-05-20T04:52:35.411Z,72.72
2023-05-20T04:53:35.422Z,72.82
2023-05-20T04:54:35.401Z,72.41
2023-05-20T04:55:35.547Z,72.52
2023-05-20T04:56:35.369Z,71.91
2023-05-20T04:57:35.362Z,72.62
2023-05-20T04:58:35.376Z,72.38
2023-05-20T04:59:35.378Z,72.31
2023-05-20T05:00:35.339Z,72.38
2023-05-20T05:01:35.343Z,71.77
2023-05-20T05:02:35.328Z,71.97
2023-05-20T05:03:36.671Z,72.08
2023-05-20T05:04:35.323Z,72.38
2023-05-20T05:05:35.397Z,72.38
2023-05-20T05:06:35.256Z,72.69
2023-05-20T05:07:35.255Z,72.69
2023-05-20T05:08:35.252Z,72.69
2023-05-20T05:09:35.236Z,72.58
2023-05-20T05:10:35.224Z,72.69
2023-05-20T05:11:35.205Z,72.38
2023-05-20T05:12:35.206Z,72.99
2023-05-20T05:13:35.228Z,72.48
2023-05-20T05:14:35.180Z,72.45
2023-05-20T05:15:35.438Z,72.34
2023-05-20T05:16:35.270Z,71.94
2023-05-20T05:17:35.203Z,71.94
2023-05-20T05:18:35.148Z,71.43
2023-05-20T05:19:35.120Z,71.84
2023-05-20T05:20:35.113Z,72.04
2023-05-20T05:21:35.111Z,71.80
2023-05-20T05:22:35.100Z,71.70
2023-05-20T05:23:35.100Z,71.70
2023-05-20T05:24:35.069Z,72.21
2023-05-20T05:25:35.336Z,71.91
2023-05-20T05:26:35.037Z,71.80
2023-05-20T05:27:35.026Z,71.40
2023-05-20T05:28:35.076Z,71.77
2023-05-20T05:29:35.006Z,71.40
2023-05-20T05:30:35.010Z,71.26
2023-05-20T05:31:35.013Z,70.76
2023-05-20T05:32:35.159Z,71.16
2023-05-20T05:33:34.991Z,71.06
2023-05-20T05:34:34.998Z,70.86
2023-05-20T05:35:35.155Z,70.92
2023-05-20T05:36:34.958Z,70.62
2023-05-20T05:37:34.933Z,71.03
2023-05-20T05:38:34.911Z,70.72
2023-05-20T05:39:34.920Z,70.52
2023-05-20T05:40:34.888Z,70.21
2023-05-20T05:41:34.873Z,70.42
2023-05-20T05:42:34.866Z,69.81
2023-05-20T05:43:34.845Z,70.08
2023-05-20T05:44:34.882Z,70.28
2023-05-20T05:45:34.966Z,69.98
2023-05-20T05:46:34.918Z,69.88
2023-05-20T05:47:34.880Z,69.88
2023-05-20T05:48:34.809Z,69.27
2023-05-20T05:49:34.789Z,68.87
2023-05-20T05:50:34.782Z,68.96
2023-05-20T05:51:36.432Z,68.93
2023-05-20T05:52:34.769Z,69.17
2023-05-20T05:53:34.752Z,69.07
2023-05-20T05:54:34.718Z,69.13
2023-05-20T05:55:34.898Z,69.13
2023-05-20T05:56:34.708Z,68.73
2023-05-20T05:57:34.687Z,68.63
2023-05-20T05:58:34.697Z,68.63
2023-05-20T05:59:34.673Z,70.05
2023-05-20T06:00:34.712Z,68.90
2023-05-20T06:01:34.660Z,68.60
2023-05-20T06:02:34.713Z,68.40
2023-05-20T06:03:34.929Z,68.49
2023-05-20T06:04:34.630Z,68.56
2023-05-20T06:05:34.927Z,68.49
2023-05-20T06:06:34.595Z,68.06
2023-05-20T06:07:34.582Z,68.60
2023-05-20T06:08:34.571Z,68.40
2023-05-20T06:09:34.566Z,68.19
2023-05-20T06:10:34.561Z,68.16
2023-05-20T06:11:34.541Z,68.06
2023-05-20T06:12:34.514Z,68.26
2023-05-20T06:13:34.505Z,68.56
2023-05-20T06:14:34.503Z,68.46
2023-05-20T06:15:34.899Z,68.16
2023-05-20T06:16:34.496Z,68.36
2023-05-20T06:17:34.527Z,68.02
2023-05-20T06:18:34.477Z,67.42
2023-05-20T06:19:34.582Z,68.13
2023-05-20T06:20:34.437Z,68.23
2023-05-20T06:21:34.413Z,67.32
2023-05-20T06:22:34.417Z,67.11
2023-05-20T06:23:34.439Z,67.18
2023-05-20T06:24:34.388Z,67.01
2023-05-20T06:25:34.585Z,67.22
2023-05-20T06:26:34.373Z,66.91
2023-05-20T06:27:34.360Z,67.22
2023-05-20T06:28:34.334Z,68.50
2023-05-20T06:29:34.364Z,66.88
2023-05-20T06:30:34.324Z,66.17
2023-05-20T06:31:34.476Z,66.78
2023-05-20T06:32:34.328Z,66.71
2023-05-20T06:33:34.299Z,66.67
2023-05-20T06:34:34.269Z,66.78
2023-05-20T06:35:34.533Z,66.00
2023-05-20T06:36:34.252Z,66.88
2023-05-20T06:37:34.294Z,66.78
2023-05-20T06:38:34.219Z,67.49
2023-05-20T06:39:34.227Z,67.18
2023-05-20T06:40:34.229Z,66.78
2023-05-20T06:41:34.190Z,66.04
2023-05-20T06:42:34.208Z,66.95
2023-05-20T06:43:34.174Z,66.14
2023-05-20T06:44:34.157Z,66.31
2023-05-20T06:45:34.453Z,65.91
2023-05-20T06:46:34.176Z,66.31
2023-05-20T06:47:34.191Z,66.28
2023-05-20T06:48:34.112Z,65.67
2023-05-20T06:49:34.120Z,65.14
2023-05-20T06:50:34.114Z,66.05
2023-05-20T06:51:34.120Z,64.84
2023-05-20T06:52:34.082Z,64.84
2023-05-20T06:53:34.076Z,64.43
2023-05-20T06:54:34.056Z,64.81
2023-05-20T06:55:34.271Z,64.81
2023-05-20T06:56:34.017Z,64.33
2023-05-20T06:57:34.012Z,64.84
2023-05-20T06:58:34.015Z,64.43
2023-05-20T06:59:34.036Z,64.73
2023-05-20T07:00:33.990Z,64.43
2023-05-20T07:01:34.052Z,64.53
2023-05-20T07:02:34.004Z,65.14
2023-05-20T07:03:34.028Z,64.61
2023-05-20T07:04:33.928Z,64.70
2023-05-20T07:05:34.123Z,64.40
2023-05-20T07:06:33.917Z,64.81
2023-05-20T07:07:33.929Z,64.30
2023-05-20T07:08:33.887Z,64.30
2023-05-20T07:09:33.874Z,64.07
2023-05-20T07:10:34.033Z,63.76
2023-05-20T07:11:33.851Z,64.67
2023-05-20T07:12:36.060Z,64.47
2023-05-20T07:13:33.838Z,63.96
2023-05-20T07:14:33.829Z,64.27
2023-05-20T07:15:34.035Z,64.14
2023-05-20T07:16:33.824Z,64.14
2023-05-20T07:17:33.829Z,63.73
2023-05-20T07:18:33.783Z,63.93
2023-05-20T07:19:33.767Z,63.20
2023-05-20T07:20:33.774Z,62.87
2023-05-20T07:21:33.746Z,62.46
2023-05-20T07:22:33.739Z,62.26
2023-05-20T07:23:33.730Z,61.93
2023-05-20T07:24:33.700Z,62.04
2023-05-20T07:25:33.989Z,61.20
2023-05-20T07:26:33.703Z,61.40
2023-05-20T07:27:33.692Z,61.77
2023-05-20T07:28:33.656Z,61.37
2023-05-20T07:29:33.658Z,61.17
2023-05-20T07:30:33.636Z,60.53
2023-05-20T07:31:33.646Z,60.33
2023-05-20T07:32:33.663Z,59.74
2023-05-20T07:33:33.639Z,60.31
2023-05-20T07:34:33.591Z,59.80
2023-05-20T07:35:33.827Z,59.78
2023-05-20T07:36:33.581Z,59.20
2023-05-20T07:37:33.550Z,59.67
2023-05-20T07:38:33.579Z,59.38
2023-05-20T07:39:33.559Z,59.58
2023-05-20T07:40:33.919Z,59.47
2023-05-20T07:41:33.526Z,59.78
2023-05-20T07:42:33.533Z,59.58
2023-05-20T07:43:33.493Z,59.38
2023-05-20T07:44:33.487Z,59.27
2023-05-20T07:45:33.615Z,59.47
2023-05-20T07:46:33.494Z,59.27
2023-05-20T07:47:33.500Z,59.38
2023-05-20T07:48:33.467Z,59.47
2023-05-20T07:49:33.432Z,59.38
2023-05-20T07:50:33.434Z,59.17
2023-05-20T07:51:33.398Z,59.58
2023-05-20T07:52:43.951Z,59.58
2023-05-20T07:53:34.379Z,59.20
2023-05-20T07:54:33.369Z,59.41
2023-05-20T07:55:33.656Z,59.50
2023-05-20T07:56:33.379Z,59.17
2023-05-20T07:57:33.332Z,60.00
2023-05-20T07:58:33.341Z,59.41
2023-05-20T07:59:33.327Z,59.70
2023-05-20T08:00:33.306Z,60.61
2023-05-20T08:01:33.300Z,60.31
2023-05-20T08:02:33.352Z,60.21
2023-05-20T08:03:33.384Z,59.70
2023-05-20T08:04:33.287Z,60.41
2023-05-20T08:05:33.601Z,59.23
2023-05-20T08:06:33.254Z,59.80
2023-05-20T08:07:33.234Z,59.80
2023-05-20T08:08:33.214Z,60.44
2023-05-20T08:09:33.205Z,60.24
2023-05-20T08:10:33.205Z,60.36
2023-05-20T08:11:33.400Z,61.37
2023-05-20T08:12:33.166Z,61.17
2023-05-20T08:13:33.174Z,61.07
2023-05-20T08:14:33.161Z,61.57
2023-05-20T08:15:33.445Z,61.65
2023-05-20T08:16:33.198Z,60.77
2023-05-20T08:17:33.134Z,61.24
2023-05-20T08:18:33.140Z,61.44
2023-05-20T08:19:33.227Z,61.34
2023-05-20T08:20:33.082Z,60.84
2023-05-20T08:21:33.088Z,61.04
2023-05-20T08:22:33.073Z,61.14
2023-05-20T08:23:36.370Z,60.94
2023-05-20T08:24:33.050Z,61.74
2023-05-20T08:25:33.350Z,61.14
2023-05-20T08:26:33.025Z,60.94
2023-05-20T08:27:33.039Z,60.84
2023-05-20T08:28:33.018Z,60.94
2023-05-20T08:29:32.993Z,61.04
2023-05-20T08:30:32.980Z,60.84
2023-05-20T08:31:33.106Z,61.21
2023-05-20T08:32:32.958Z,61.01
2023-05-20T08:33:32.945Z,61.69
2023-05-20T08:34:32.942Z,60.35
2023-05-20T08:35:33.119Z,60.42
2023-05-20T08:36:32.915Z,59.12
2023-05-20T08:37:32.888Z,59.22
2023-05-20T08:38:32.879Z,58.81
2023-05-20T08:39:32.876Z,59.12
2023-05-20T08:40:32.867Z,59.72
2023-05-20T08:41:32.870Z,59.59
2023-05-20T08:42:32.848Z,59.36
2023-05-20T08:43:32.924Z,58.46
2023-05-20T08:44:32.826Z,57.35
2023-05-20T08:45:33.107Z,58.06
2023-05-20T08:46:32.860Z,57.26
2023-05-20T08:47:32.822Z,57.35
2023-05-20T08:48:32.784Z,58.26
2023-05-20T08:49:32.787Z,57.96
2023-05-20T08:50:32.750Z,58.06
2023-05-20T08:51:32.764Z,57.93
2023-05-20T08:52:32.739Z,57.66
2023-05-20T08:53:32.723Z,58.33
2023-05-20T08:54:32.704Z,57.83
2023-05-20T08:55:32.996Z,57.33
2023-05-20T08:56:32.696Z,57.53
2023-05-20T08:57:32.684Z,57.80
2023-05-20T08:58:32.740Z,58.40
2023-05-20T08:59:32.735Z,57.78
2023-05-20T09:00:32.639Z,57.30
2023-05-20T09:01:32.667Z,57.07
2023-05-20T09:02:32.666Z,56.77
2023-05-20T09:03:32.613Z,56.98
2023-05-20T09:04:32.655Z,56.87
2023-05-20T09:05:32.884Z,57.50
2023-05-20T09:06:33.080Z,57.07
2023-05-20T09:07:32.571Z,57.28
2023-05-20T09:08:32.561Z,57.07
2023-05-20T09:09:32.534Z,57.57
2023-05-20T09:10:32.542Z,57.05
2023-05-20T09:11:32.536Z,57.45
2023-05-20T09:12:32.524Z,57.24
2023-05-20T09:13:32.560Z,56.95
2023-05-20T09:14:32.487Z,56.82
2023-05-20T09:15:32.740Z,56.82
2023-05-20T09:16:32.492Z,56.92
2023-05-20T09:17:32.514Z,56.72
2023-05-20T09:18:32.438Z,56.72
2023-05-20T09:19:32.601Z,56.79
2023-05-20T09:20:32.432Z,56.29
2023-05-20T09:21:32.431Z,56.67
2023-05-20T09:22:32.415Z,55.57
2023-05-20T09:23:32.412Z,55.17
2023-05-20T09:24:32.373Z,55.17
2023-05-20T09:25:32.579Z,55.66
2023-05-20T09:26:32.373Z,55.74
2023-05-20T09:27:32.350Z,55.34
2023-05-20T09:28:32.328Z,55.21
2023-05-20T09:29:32.314Z,53.72
2023-05-20T09:30:32.309Z,54.79
2023-05-20T09:31:32.383Z,54.06
2023-05-20T09:32:32.377Z,53.34
2023-05-20T09:33:32.471Z,53.02
2023-05-20T09:34:32.265Z,53.61
2023-05-20T09:35:32.412Z,53.29
2023-05-20T09:36:32.263Z,52.79
2023-05-20T09:37:32.237Z,52.99
2023-05-20T09:38:32.217Z,52.59
2023-05-20T09:39:32.213Z,52.69
2023-05-20T09:40:32.196Z,53.29
2023-05-20T09:41:32.200Z,52.59
2023-05-20T09:42:32.190Z,52.19
2023-05-20T09:43:32.176Z,52.12
2023-05-20T09:44:32.166Z,51.50
2023-05-20T09:45:32.158Z,51.89
2023-05-20T09:46:32.212Z,52.89
2023-05-20T09:47:32.166Z,52.12
2023-05-20T09:48:34.138Z,52.02
2023-05-20T09:49:32.097Z,51.12
2023-05-20T09:50:32.112Z,52.87
2023-05-20T09:51:32.099Z,53.66
2023-05-20T09:52:32.078Z,53.06
2023-05-20T09:53:32.055Z,53.36
2023-05-20T09:54:32.058Z,53.66
2023-05-20T09:55:32.195Z,53.79
2023-05-20T09:56:32.025Z,53.99
2023-05-20T09:57:32.046Z,54.99
2023-05-20T09:58:32.014Z,53.89
2023-05-20T09:59:32.025Z,54.29
2023-05-20T10:00:31.985Z,53.19
2023-05-20T10:01:32.026Z,52.59
2023-05-20T10:02:32.021Z,53.02
2023-05-20T10:03:32.218Z,52.52
2023-05-20T10:04:31.968Z,53.72
2023-05-20T10:05:32.076Z,53.99
2023-05-20T10:06:31.937Z,53.66
2023-05-20T10:07:41.841Z,53.27
2023-05-20T10:08:32.923Z,52.87
2023-05-20T10:09:31.898Z,52.84
2023-05-20T10:10:31.870Z,52.76
2023-05-20T10:11:31.883Z,53.54
2023-05-20T10:12:31.866Z,52.84
2023-05-20T10:13:31.842Z,52.64
2023-05-20T10:14:31.868Z,52.55
2023-05-20T10:15:31.901Z,52.37
2023-05-20T10:16:31.879Z,52.76
2023-05-20T10:17:31.815Z,52.89
2023-05-20T10:18:31.829Z,52.89
2023-05-20T10:19:31.827Z,53.72
2023-05-20T10:20:31.813Z,53.61
2023-05-20T10:21:31.759Z,53.02
2023-05-20T10:22:31.755Z,53.72
2023-05-20T10:23:31.744Z,53.81
2023-05-20T10:24:31.723Z,53.72
2023-05-20T10:25:31.730Z,53.64
2023-05-20T10:26:31.713Z,54.04
2023-05-20T10:27:31.682Z,54.97
2023-05-20T10:28:31.718Z,54.99
2023-05-20T10:29:31.674Z,54.90
2023-05-20T10:30:31.669Z,55.09
2023-05-20T10:31:31.658Z,54.52
2023-05-20T10:32:31.850Z,55.22
2023-05-20T10:33:31.701Z,54.99
2023-05-20T10:34:31.627Z,55.09
2023-05-20T10:35:31.646Z,55.52
2023-05-20T10:36:31.619Z,55.89
2023-05-20T10:37:31.590Z,55.32
2023-05-20T10:38:31.577Z,55.62
2023-05-20T10:39:31.571Z,56.02
2023-05-20T10:40:31.556Z,55.72
2023-05-20T10:41:31.558Z,55.32
2023-05-20T10:42:31.535Z,55.82
2023-05-20T10:43:31.518Z,55.62
2023-05-20T10:44:31.501Z,55.52
2023-05-20T10:45:31.520Z,55.42
2023-05-20T10:46:40.140Z,55.72
2023-05-20T10:47:32.529Z,55.62
2023-05-20T10:48:31.583Z,56.20
2023-05-20T10:49:31.476Z,56.79
2023-05-20T10:50:31.638Z,57.19
2023-05-20T10:51:31.457Z,57.02
2023-05-20T10:52:31.409Z,55.59
2023-05-20T10:53:34.516Z,56.59
2023-05-20T10:54:31.388Z,56.79
2023-05-20T10:55:31.374Z,57.19
2023-05-20T10:56:31.382Z,56.70
2023-05-20T10:57:31.352Z,56.92
2023-05-20T10:58:31.345Z,56.62
2023-05-20T10:59:31.343Z,57.09
2023-05-20T11:00:31.335Z,57.29
2023-05-20T11:01:31.369Z,57.12
2023-05-20T11:02:31.314Z,56.72
2023-05-20T11:03:31.365Z,56.92
2023-05-20T11:04:31.294Z,56.79
2023-05-20T11:05:31.278Z,57.32
2023-05-20T11:06:31.283Z,57.22
2023-05-20T11:07:31.283Z,56.99
2023-05-20T11:08:31.248Z,57.02
2023-05-20T11:09:31.219Z,56.59
2023-05-20T11:10:31.229Z,56.72
2023-05-20T11:11:31.239Z,56.92
2023-05-20T11:12:31.303Z,57.62
2023-05-20T11:13:31.178Z,57.29
2023-05-20T11:14:31.172Z,56.99
2023-05-20T11:15:31.166Z,56.79
2023-05-20T11:16:31.250Z,57.59
2023-05-20T11:17:31.181Z,56.59
2023-05-20T11:18:31.154Z,56.49
2023-05-20T11:19:31.180Z,56.29
2023-05-20T11:20:31.104Z,56.96
2023-05-20T11:21:31.122Z,56.70
2023-05-20T11:22:31.082Z,56.96
2023-05-20T11:23:31.095Z,56.89
2023-05-20T11:24:31.063Z,57.09
2023-05-20T11:25:31.078Z,56.20
2023-05-20T11:26:31.074Z,56.59
2023-05-20T11:27:31.132Z,56.77
2023-05-20T11:28:31.048Z,56.64
2023-05-20T11:29:31.018Z,56.54
2023-05-20T11:30:30.998Z,56.74
2023-05-20T11:31:31.032Z,56.14
2023-05-20T11:32:31.083Z,55.54
2023-05-20T11:33:30.979Z,55.54
2023-05-20T11:35:30.955Z,56.04
2023-05-20T11:36:30.960Z,55.47
2023-05-20T11:37:30.930Z,55.27
2023-05-20T11:38:30.904Z,56.57
2023-05-20T11:39:30.918Z,56.77
2023-05-20T11:40:35.874Z,56.34
2023-05-20T11:41:31.893Z,56.37
2023-05-20T11:42:30.873Z,55.47
2023-05-20T11:43:30.842Z,57.19
2023-05-20T11:44:30.850Z,56.70
2023-05-20T11:45:30.820Z,57.09
2023-05-20T11:46:30.912Z,57.59
2023-05-20T11:47:30.859Z,56.99
2023-05-20T11:48:30.793Z,57.19
2023-05-20T11:49:31.010Z,57.39
2023-05-20T11:50:30.780Z,56.49
2023-05-20T11:51:30.790Z,57.29
2023-05-20T11:52:30.763Z,57.32
2023-05-20T11:53:30.732Z,57.42
2023-05-20T11:54:30.725Z,57.72
2023-05-20T11:55:30.750Z,57.72
2023-05-20T11:56:30.728Z,57.82
2023-05-20T11:57:30.690Z,57.72
2023-05-20T11:58:30.683Z,57.32
2023-05-20T11:59:30.668Z,57.92
2023-05-20T12:00:39.582Z,58.00
2023-05-20T12:01:31.667Z,57.89
2023-05-20T12:02:30.758Z,57.32
2023-05-20T12:03:30.737Z,57.42
2023-05-20T12:04:30.701Z,57.69
2023-05-20T12:05:30.617Z,58.00
2023-05-20T12:06:30.625Z,57.69
2023-05-20T12:07:30.610Z,57.59
2023-05-20T12:08:30.583Z,57.59
2023-05-20T12:09:30.572Z,57.50
2023-05-20T12:10:30.555Z,57.19
2023-05-20T12:11:30.596Z,57.09
2023-05-20T12:12:30.543Z,57.19
2023-05-20T12:13:30.535Z,57.09
2023-05-20T12:14:30.523Z,58.00
2023-05-20T12:15:30.516Z,57.32
2023-05-20T12:16:30.713Z,57.72
2023-05-20T12:17:30.500Z,58.25
2023-05-20T12:18:30.479Z,58.85
2023-05-20T12:19:30.646Z,58.85
2023-05-20T12:20:30.463Z,58.75
2023-05-20T12:21:30.431Z,58.98
2023-05-20T12:22:30.451Z,59.08
2023-05-20T12:23:30.421Z,59.11
2023-05-20T12:24:30.424Z,59.50
2023-05-20T12:25:30.395Z,59.64
2023-05-20T12:26:30.392Z,60.03
2023-05-20T12:27:30.415Z,60.41
2023-05-20T12:28:30.373Z,60.11
2023-05-20T12:29:30.354Z,60.11
2023-05-20T12:30:30.336Z,60.53
2023-05-20T12:31:33.006Z,60.21
2023-05-20T12:32:30.326Z,60.11
2023-05-20T12:33:30.307Z,59.70
2023-05-20T12:34:30.300Z,59.70
2023-05-20T12:35:30.272Z,60.78
2023-05-20T12:36:30.312Z,59.08
2023-05-20T12:37:30.290Z,59.98
2023-05-20T12:38:30.242Z,57.75
2023-05-20T12:39:30.230Z,58.15
2023-05-20T12:40:30.223Z,58.45
2023-05-20T12:41:30.203Z,59.45
2023-05-20T12:42:30.226Z,58.95
2023-05-20T12:43:30.214Z,59.25
2023-05-20T12:44:30.178Z,58.15
2023-05-20T12:45:30.174Z,58.05
2023-05-20T12:46:30.198Z,57.85
2023-05-20T12:47:30.212Z,58.28
2023-05-20T12:48:30.136Z,59.15
2023-05-20T12:49:30.123Z,59.55
2023-05-20T12:50:30.118Z,58.85
2023-05-20T12:51:30.112Z,59.32
2023-05-20T12:52:30.103Z,57.92
2023-05-20T12:53:30.083Z,57.62